createdAt,value
2018-07-20T00:03:19.406Z,52.00
2018-07-20T00:05:55.684Z,52.00
2018-07-20T00:08:24.386Z,52.00
2018-07-20T00:10:52.843Z,52.00
2018-07-20T00:13:21.265Z,52.10
2018-07-20T00:15:49.743Z,52.20
2018-07-20T00:20:47.881Z,52.30
2018-07-20T00:23:16.332Z,52.30
2018-07-20T00:28:13.276Z,52.60
2018-07-20T00:30:41.688Z,52.60
2018-07-20T00:35:38.196Z,52.70
2018-07-20T00:38:06.651Z,52.70
2018-07-20T00:40:35.143Z,52.70
2018-07-20T00:43:03.550Z,52.80
2018-07-20T00:45:31.940Z,52.80
2018-07-20T00:48:00.429Z,52.90
2018-07-20T00:50:28.815Z,52.90
2018-07-20T00:55:25.304Z,53.00
2018-07-20T00:57:55.979Z,53.00
2018-07-20T01:00:24.401Z,53.10
2018-07-20T01:02:53.252Z,53.00
2018-07-20T01:05:21.670Z,53.10
2018-07-20T01:09:19.536Z,53.10
2018-07-20T01:14:16.031Z,53.30
2018-07-20T01:16:44.521Z,53.30
2018-07-20T01:19:12.938Z,53.30
2018-07-20T01:21:41.335Z,53.30
2018-07-20T01:26:37.935Z,53.40
2018-07-20T01:29:06.446Z,53.40
2018-07-20T01:31:35.011Z,53.40
2018-07-20T01:34:03.511Z,53.40
2018-07-20T01:36:32.121Z,53.40
2018-07-20T01:41:28.644Z,53.90
2018-07-20T01:43:57.640Z,53.50
2018-07-20T01:46:27.004Z,53.50
2018-07-20T01:48:55.396Z,53.50
2018-07-20T01:51:24.654Z,53.60
2018-07-20T01:56:30.158Z,53.10
2018-07-20T01:58:58.598Z,53.60
2018-07-20T02:01:27.091Z,53.60
2018-07-20T02:08:55.463Z,53.80
2018-07-20T02:11:23.873Z,53.80
2018-07-20T02:13:52.464Z,53.80
2018-07-20T02:16:20.866Z,53.80
2018-07-20T02:18:49.422Z,54.20
2018-07-20T02:21:32.469Z,53.80
2018-07-20T02:24:00.830Z,53.80
2018-07-20T02:26:29.331Z,53.80
2018-07-20T02:31:25.835Z,53.90
2018-07-20T02:34:02.088Z,53.80
2018-07-20T02:36:30.905Z,53.90
2018-07-20T02:38:59.299Z,53.90
2018-07-20T02:41:27.705Z,53.90
2018-07-20T02:43:56.430Z,54.50
2018-07-20T02:46:32.910Z,53.90
2018-07-20T02:49:01.484Z,53.90
2018-07-20T02:51:30.573Z,53.90
2018-07-20T02:53:59.268Z,54.00
2018-07-20T02:56:27.642Z,53.90
2018-07-20T02:58:57.258Z,54.00
2018-07-20T03:01:25.666Z,54.00
2018-07-20T03:06:22.682Z,54.00
2018-07-20T03:08:51.383Z,54.00
2018-07-20T03:16:31.664Z,54.00
2018-07-20T03:19:00.179Z,54.10
2018-07-20T03:21:28.764Z,54.00
2018-07-20T03:24:04.760Z,54.20
2018-07-20T03:29:02.234Z,54.10
2018-07-20T03:36:34.433Z,54.20
2018-07-20T03:39:02.845Z,54.20
2018-07-20T03:41:31.238Z,54.10
2018-07-20T03:43:59.624Z,54.20
2018-07-20T03:46:28.045Z,54.20
2018-07-20T03:49:00.399Z,54.20
2018-07-20T03:51:28.801Z,54.20
2018-07-20T03:53:57.409Z,54.20
2018-07-20T03:56:25.852Z,54.30
2018-07-20T03:58:54.578Z,54.40
2018-07-20T04:04:14.254Z,54.40
2018-07-20T04:06:42.793Z,54.30
2018-07-20T04:09:11.740Z,54.30
2018-07-20T04:14:20.755Z,54.40
2018-07-20T04:16:49.541Z,54.30
2018-07-20T04:19:17.931Z,54.30
2018-07-20T04:21:46.423Z,54.30
2018-07-20T04:24:14.824Z,54.30
2018-07-20T04:31:53.229Z,54.30
2018-07-20T04:34:21.605Z,54.20
2018-07-20T04:36:50.990Z,54.30
2018-07-20T04:39:19.390Z,54.20
2018-07-20T04:41:47.980Z,54.20
2018-07-20T04:44:16.379Z,54.20
2018-07-20T04:46:44.952Z,54.20
2018-07-20T04:49:13.475Z,54.20
2018-07-20T04:54:10.020Z,54.10
2018-07-20T04:56:38.441Z,54.20
2018-07-20T04:59:06.949Z,54.10
2018-07-20T05:01:35.347Z,54.00
2018-07-20T05:04:21.019Z,54.00
2018-07-20T05:06:50.135Z,54.20
2018-07-20T05:09:18.713Z,54.10
2018-07-20T05:11:47.128Z,54.10
2018-07-20T05:17:04.638Z,54.10
2018-07-20T05:19:33.059Z,54.10
2018-07-20T05:24:29.675Z,54.30
2018-07-20T05:26:58.083Z,54.20
2018-07-20T05:34:22.980Z,54.40
2018-07-20T05:36:51.370Z,54.30
2018-07-20T05:39:20.004Z,54.30
2018-07-20T05:41:48.395Z,54.30
2018-07-20T05:44:16.788Z,54.30
2018-07-20T05:46:45.224Z,54.30
2018-07-20T05:51:42.934Z,54.30
2018-07-20T05:54:24.464Z,54.30
2018-07-20T05:56:53.374Z,54.40
2018-07-20T05:59:22.201Z,54.30
2018-07-20T06:01:50.601Z,54.40
2018-07-20T06:04:19.167Z,54.30
2018-07-20T06:07:05.308Z,54.40
2018-07-20T06:09:33.729Z,54.30
2018-07-20T06:17:00.562Z,54.40
2018-07-20T06:19:28.958Z,54.40
2018-07-20T06:21:57.422Z,54.40
2018-07-20T06:24:25.820Z,54.40
2018-07-20T06:26:54.210Z,54.40
2018-07-20T06:29:22.663Z,54.30
2018-07-20T06:31:51.038Z,54.40
2018-07-20T06:34:19.435Z,54.40
2018-07-20T06:36:47.864Z,54.20
2018-07-20T06:39:16.253Z,54.10
2018-07-20T06:41:44.748Z,54.40
2018-07-20T06:44:27.564Z,54.20
2018-07-20T06:46:56.056Z,54.40
2018-07-20T06:49:24.488Z,54.20
2018-07-20T06:54:21.044Z,54.30
2018-07-20T06:59:34.791Z,54.20
2018-07-20T07:02:03.344Z,54.20
2018-07-20T07:04:32.786Z,54.30
2018-07-20T07:07:04.011Z,54.20
2018-07-20T07:09:32.499Z,54.20
2018-07-20T07:12:00.831Z,54.20
2018-07-20T07:14:29.276Z,54.20
2018-07-20T07:19:25.934Z,54.50
2018-07-20T07:21:54.479Z,54.20
2018-07-20T07:24:22.907Z,54.30
2018-07-20T07:31:47.712Z,54.40
2018-07-20T07:34:31.754Z,54.40
2018-07-20T07:37:00.267Z,54.40
2018-07-20T07:41:56.750Z,54.40
2018-07-20T07:44:25.270Z,54.60
2018-07-20T07:47:11.056Z,54.40
2018-07-20T07:49:39.567Z,54.60
2018-07-20T07:52:08.151Z,54.50
2018-07-20T07:54:36.591Z,54.60
2018-07-20T07:57:05.172Z,54.10
2018-07-20T07:59:33.568Z,54.60
2018-07-20T08:02:01.968Z,54.70
2018-07-20T08:04:30.377Z,54.80
2018-07-20T08:09:27.466Z,55.00
2018-07-20T08:11:56.005Z,54.90
2018-07-20T08:14:24.395Z,54.90
2018-07-20T08:19:21.119Z,55.00
2018-07-20T08:21:49.541Z,55.00
2018-07-20T08:27:03.255Z,54.90
2018-07-20T08:29:31.725Z,54.80
2018-07-20T08:32:00.226Z,54.80
2018-07-20T08:34:28.639Z,54.90
2018-07-20T08:39:40.428Z,54.90
2018-07-20T08:42:08.830Z,54.80
2018-07-20T08:44:37.407Z,54.80
2018-07-20T08:47:05.875Z,55.00
2018-07-20T08:49:34.269Z,55.30
2018-07-20T08:54:30.794Z,55.30
2018-07-20T08:56:59.322Z,54.60
2018-07-20T09:04:25.950Z,54.20
2018-07-20T09:06:54.505Z,54.20
2018-07-20T09:09:22.917Z,54.10
2018-07-20T09:11:51.332Z,54.10
2018-07-20T09:14:41.283Z,54.00
2018-07-20T09:17:09.678Z,54.30
2018-07-20T09:19:38.076Z,54.00
2018-07-20T09:22:06.467Z,54.10
2018-07-20T09:27:16.298Z,54.00
2018-07-20T09:29:44.690Z,54.00
2018-07-20T09:32:13.117Z,53.90
2018-07-20T09:34:41.965Z,54.00
2018-07-20T09:37:10.508Z,54.00
2018-07-20T09:39:39.134Z,54.00
2018-07-20T09:42:07.593Z,54.00
2018-07-20T09:44:36.130Z,53.90
2018-07-20T09:52:01.755Z,53.90
2018-07-20T09:59:26.497Z,53.90
2018-07-20T10:01:54.955Z,53.90
2018-07-20T10:04:40.749Z,53.90
2018-07-20T10:07:09.143Z,53.90
2018-07-20T10:12:05.752Z,54.40
2018-07-20T10:14:34.204Z,53.90
2018-07-20T10:17:02.623Z,53.90
2018-07-20T10:19:31.082Z,53.90
2018-07-20T10:21:59.734Z,53.80
2018-07-20T10:24:28.278Z,53.80
2018-07-20T10:26:56.677Z,53.80
2018-07-20T10:29:25.437Z,53.70
2018-07-20T10:31:53.977Z,53.70
2018-07-20T10:34:22.389Z,53.20
2018-07-20T10:36:50.888Z,52.70
2018-07-20T10:39:21.681Z,52.60
2018-07-20T10:44:31.369Z,53.00
2018-07-20T10:46:59.798Z,53.00
2018-07-20T10:49:28.222Z,53.10
2018-07-20T10:51:56.676Z,53.20
2018-07-20T10:57:14.362Z,54.10
2018-07-20T10:59:42.802Z,53.60
2018-07-20T11:02:11.210Z,53.60
2018-07-20T11:04:39.590Z,53.60
2018-07-20T11:07:08.207Z,53.70
2018-07-20T11:09:36.618Z,53.20
2018-07-20T11:14:33.209Z,52.50
2018-07-20T11:17:01.627Z,52.60
2018-07-20T11:19:30.041Z,52.70
2018-07-20T11:21:58.440Z,52.90
2018-07-20T11:26:55.048Z,53.30
2018-07-20T11:29:23.469Z,53.40
2018-07-20T11:34:44.158Z,53.50
2018-07-20T11:37:12.572Z,53.00
2018-07-20T11:42:09.102Z,51.90
2018-07-20T11:47:18.136Z,52.00
2018-07-20T11:49:46.609Z,52.00
2018-07-20T11:52:15.039Z,52.20
2018-07-20T11:57:11.545Z,52.90
2018-07-20T11:59:39.956Z,53.50
2018-07-20T12:02:08.481Z,53.40
2018-07-20T12:04:36.887Z,53.50
2018-07-20T12:07:05.400Z,53.80
2018-07-20T12:09:33.974Z,53.80
2018-07-20T12:12:02.374Z,53.80
2018-07-20T12:14:30.881Z,53.80
2018-07-20T12:16:59.421Z,53.80
2018-07-20T12:19:27.814Z,53.10
2018-07-20T12:22:03.415Z,52.30
2018-07-20T12:24:32.736Z,52.40
2018-07-20T12:27:01.139Z,52.40
2018-07-20T12:29:29.545Z,52.40
2018-07-20T12:34:31.267Z,53.10
2018-07-20T12:36:59.690Z,53.10
2018-07-20T12:39:28.181Z,53.40
2018-07-20T12:44:24.974Z,53.60
2018-07-20T12:46:53.384Z,53.80
2018-07-20T12:49:21.815Z,53.70
2018-07-20T12:54:18.315Z,53.80
2018-07-20T12:56:46.819Z,53.80
2018-07-20T12:59:15.236Z,53.80
2018-07-20T13:01:46.736Z,53.40
2018-07-20T13:04:15.208Z,52.40
2018-07-20T13:06:43.656Z,52.70
2018-07-20T13:09:13.355Z,52.60
2018-07-20T13:14:27.701Z,53.00
2018-07-20T13:16:56.722Z,53.10
2018-07-20T13:19:25.149Z,53.30
2018-07-20T13:21:53.821Z,53.40
2018-07-20T13:24:22.318Z,53.40
2018-07-20T13:27:04.175Z,53.50
2018-07-20T13:32:00.809Z,53.50
2018-07-20T13:34:29.263Z,53.60
2018-07-20T13:36:57.882Z,53.70
2018-07-20T13:39:26.493Z,53.70
2018-07-20T13:41:54.926Z,53.70
2018-07-20T13:44:23.337Z,53.60
2018-07-20T13:49:20.139Z,53.60
2018-07-20T13:51:50.826Z,53.60
2018-07-20T13:56:47.654Z,52.80
2018-07-20T13:59:16.055Z,52.80
2018-07-20T14:04:33.258Z,53.20
2018-07-20T14:07:01.681Z,53.20
2018-07-20T14:09:30.062Z,53.20
2018-07-20T14:11:58.463Z,53.20
2018-07-20T14:16:55.271Z,53.30
2018-07-20T14:19:23.757Z,53.20
2018-07-20T14:21:52.152Z,53.20
2018-07-20T14:24:20.554Z,53.20
2018-07-20T14:29:17.069Z,51.90
2018-07-20T14:31:45.525Z,51.70
2018-07-20T14:36:42.200Z,51.20
2018-07-20T14:39:12.899Z,50.60
2018-07-20T14:41:54.075Z,51.40
2018-07-20T14:46:51.083Z,50.00
2018-07-20T14:49:19.479Z,50.60
2018-07-20T14:51:47.975Z,50.40
2018-07-20T14:54:31.897Z,50.40
2018-07-20T14:57:00.304Z,50.40
2018-07-20T14:59:28.856Z,49.80
2018-07-20T15:01:57.246Z,49.20
2018-07-20T15:04:25.930Z,49.50
2018-07-20T15:06:54.464Z,48.90
2018-07-20T15:09:22.985Z,48.70
2018-07-20T15:11:51.475Z,50.60
2018-07-20T15:14:19.964Z,50.70
2018-07-20T15:16:48.474Z,51.30
2018-07-20T15:19:17.483Z,49.60
2018-07-20T15:24:14.173Z,49.50
2018-07-20T15:26:42.594Z,49.60
2018-07-20T15:29:11.055Z,49.60
2018-07-20T15:31:39.452Z,49.80
2018-07-20T15:34:08.983Z,50.40
2018-07-20T15:39:08.146Z,50.80
2018-07-20T15:41:36.790Z,51.00
2018-07-20T15:46:47.205Z,51.00
2018-07-20T15:54:12.065Z,51.60
2018-07-20T15:56:40.503Z,51.60
2018-07-20T15:59:08.908Z,51.60
2018-07-20T16:01:37.335Z,51.60
2018-07-20T16:04:05.831Z,52.10
2018-07-20T16:09:02.689Z,52.30
2018-07-20T16:14:00.521Z,52.40
2018-07-20T16:16:29.120Z,52.40
2018-07-20T16:18:57.555Z,52.60
2018-07-20T16:24:14.746Z,53.00
2018-07-20T16:26:43.151Z,53.00
2018-07-20T16:29:11.547Z,52.70
2018-07-20T16:34:08.358Z,52.30
2018-07-20T16:36:50.578Z,51.80
2018-07-20T16:39:19.046Z,52.50
2018-07-20T16:41:47.848Z,50.60
2018-07-20T16:44:16.239Z,51.10
2018-07-20T16:49:18.504Z,50.60
2018-07-20T16:51:46.913Z,50.10
2018-07-20T16:56:43.623Z,50.40
2018-07-20T16:59:12.092Z,49.70
2018-07-20T17:01:40.484Z,49.70
2018-07-20T17:04:09.013Z,49.60
2018-07-20T17:06:37.474Z,49.60
2018-07-20T17:09:08.821Z,49.30
2018-07-20T17:11:37.214Z,49.60
2018-07-20T17:14:16.488Z,49.00
2018-07-20T17:19:13.658Z,50.80
2018-07-20T17:26:54.053Z,49.40
2018-07-20T17:31:51.599Z,50.20
2018-07-20T17:34:20.162Z,49.50
2018-07-20T17:42:11.714Z,47.70
2018-07-20T17:44:40.127Z,48.00
2018-07-20T17:47:08.541Z,48.70
2018-07-20T17:52:05.166Z,49.20
2018-07-20T17:54:33.669Z,48.80
2018-07-20T18:01:58.979Z,49.60
2018-07-20T18:04:27.387Z,49.90
2018-07-20T18:06:55.789Z,49.90
2018-07-20T18:09:24.395Z,50.20
2018-07-20T18:11:52.911Z,49.80
2018-07-20T18:14:44.617Z,49.50
2018-07-20T18:17:13.258Z,50.00
2018-07-20T18:22:10.476Z,49.40
2018-07-20T18:29:35.429Z,49.60
2018-07-20T18:32:04.767Z,50.00
2018-07-20T18:37:01.419Z,51.30
2018-07-20T18:41:58.183Z,51.10
2018-07-20T18:46:54.823Z,50.90
2018-07-20T18:49:23.309Z,51.30
2018-07-20T18:52:10.783Z,51.10
2018-07-20T18:54:39.189Z,51.20
2018-07-20T18:57:07.732Z,51.30
2018-07-20T18:59:36.406Z,51.30
2018-07-20T19:02:05.004Z,51.40
2018-07-20T19:04:48.166Z,51.80
2018-07-20T19:07:16.572Z,52.50
2018-07-20T19:09:45.082Z,52.70
2018-07-20T19:14:42.576Z,54.10
2018-07-20T19:17:26.611Z,54.90
2018-07-20T19:19:55.075Z,54.90
2018-07-20T19:24:51.777Z,55.20
2018-07-20T19:27:20.821Z,54.80
2018-07-20T19:29:49.223Z,54.80
2018-07-20T19:34:45.780Z,53.50
2018-07-20T19:37:14.182Z,53.10
2018-07-20T19:39:42.663Z,53.70
2018-07-20T19:44:39.147Z,53.50
2018-07-20T19:47:07.589Z,53.80
2018-07-20T19:49:36.022Z,53.80
2018-07-20T19:52:04.509Z,53.70
2018-07-20T19:54:32.921Z,53.50
2018-07-20T19:59:29.508Z,53.20
2018-07-20T20:01:57.932Z,53.00
2018-07-20T20:04:26.514Z,52.90
2018-07-20T20:06:54.890Z,52.80
2018-07-20T20:09:23.332Z,52.80
2018-07-20T20:11:51.759Z,52.70
2018-07-20T20:14:20.188Z,52.10
2018-07-20T20:16:48.593Z,51.50
2018-07-20T20:19:17.782Z,51.20
2018-07-20T20:21:46.198Z,51.80
2018-07-20T20:24:14.645Z,51.60
2018-07-20T20:26:43.188Z,51.20
2018-07-20T20:36:36.040Z,51.20
2018-07-20T20:39:07.885Z,51.20
2018-07-20T20:41:36.543Z,50.80
2018-07-20T20:46:33.178Z,51.30
2018-07-20T20:49:01.612Z,51.20
2018-07-20T20:51:30.107Z,51.20
2018-07-20T20:53:58.531Z,51.20
2018-07-20T20:58:55.146Z,51.60
2018-07-20T21:01:24.379Z,51.80
2018-07-20T21:03:52.758Z,51.80
2018-07-20T21:06:21.246Z,51.70
2018-07-20T21:08:49.704Z,51.70
2018-07-20T21:11:18.180Z,51.40
2018-07-20T21:14:03.639Z,51.70
2018-07-20T21:16:32.039Z,51.70
2018-07-20T21:19:00.436Z,51.80
2018-07-20T21:21:28.912Z,51.80
2018-07-20T21:23:57.368Z,52.00
2018-07-20T21:26:43.128Z,52.00
2018-07-20T21:29:11.513Z,52.10
2018-07-20T21:31:40.271Z,52.30
2018-07-20T21:34:08.691Z,52.30
2018-07-20T21:39:52.884Z,52.40
2018-07-20T21:42:21.287Z,52.60
2018-07-20T21:44:49.800Z,52.70
2018-07-20T21:49:46.292Z,52.80
2018-07-20T21:52:14.688Z,52.80
2018-07-20T21:54:43.134Z,53.00
2018-07-20T21:57:11.540Z,52.90
2018-07-20T21:59:43.902Z,52.90
2018-07-20T22:02:12.366Z,53.00
2018-07-20T22:07:08.869Z,53.00
2018-07-20T22:09:37.291Z,53.10
2018-07-20T22:17:19.692Z,53.30
2018-07-20T22:19:48.452Z,53.30
2018-07-20T22:22:16.923Z,53.30
2018-07-20T22:25:00.258Z,53.80
2018-07-20T22:27:28.674Z,53.20
2018-07-20T22:29:57.526Z,53.20
2018-07-20T22:32:25.927Z,53.20
2018-07-20T22:34:54.413Z,53.20
2018-07-20T22:37:22.816Z,53.20
2018-07-20T22:39:51.283Z,53.30
2018-07-20T22:42:19.672Z,53.40
2018-07-20T22:47:16.235Z,53.30
2018-07-20T22:49:46.409Z,53.40
2018-07-20T22:52:14.822Z,53.30
2018-07-20T22:54:43.296Z,53.40
2018-07-20T22:57:11.708Z,53.40
2018-07-20T22:59:40.080Z,53.50
2018-07-20T23:02:26.241Z,53.50
2018-07-20T23:04:54.646Z,53.40
2018-07-20T23:07:23.070Z,53.50
2018-07-20T23:12:20.292Z,53.60
2018-07-20T23:15:03.627Z,53.60
2018-07-20T23:17:32.021Z,53.60
2018-07-20T23:20:00.547Z,53.60
2018-07-20T23:22:28.952Z,53.70
2018-07-20T23:24:57.373Z,53.70
2018-07-20T23:27:25.780Z,53.80
2018-07-20T23:29:54.205Z,53.80
2018-07-20T23:32:22.597Z,53.80
2018-07-20T23:34:51.055Z,53.80
2018-07-20T23:37:19.482Z,53.90
2018-07-20T23:39:49.078Z,54.00
2018-07-20T23:42:17.490Z,54.00
2018-07-20T23:44:45.879Z,54.00
2018-07-20T23:47:14.286Z,54.00
2018-07-20T23:49:42.722Z,54.00
2018-07-20T23:54:40.428Z,53.50
2018-07-20T23:57:08.818Z,54.00
2018-07-20T23:59:37.281Z,54.20
